Time;durP1;ratioP1;P1;durP2;ratioP2;P2;SDS_P1;SDS_P2;PMS_P1;PMS_P2;Temp;Humidity;BMP_temperature;BMP_pressure;BME280_temperature;BME280_humidity;BME280_pressure;Samples;Min_cycle;Max_cycle;Signal;HPM_P1;HPM_P2
2023/04/12 00:02:00;;;;;;;7.38;6.63;;;;;;;8.47;90.72;62871.97;4932897;29;20234;-79
2023/04/12 00:04:29;;;;;;;8.15;7.35;;;;;;;8.42;91.37;62864.25;4932697;29;20274;-81
2023/04/12 00:06:56;;;;;;;9.98;8.02;;;;;;;8.44;91.87;62868.34;4924630;29;20511;-82
2023/04/12 00:09:23;;;;;;;7.18;6.55;;;;;;;8.45;92.02;62869.91;4930395;29;20194;-76
2023/04/12 00:11:50;;;;;;;13.38;8.35;;;;;;;8.42;92.54;62866.78;4933274;29;20364;-80
2023/04/12 00:14:18;;;;;;;8.48;7.63;;;;;;;8.47;92.04;62871.97;4926503;29;20296;-83
2023/04/12 00:16:45;;;;;;;9.13;7.45;;;;;;;8.52;91.99;62874.06;4930357;29;20269;-82
2023/04/12 00:19:12;;;;;;;9.10;7.68;;;;;;;8.50;92.31;62874.53;4923845;29;20206;-81
2023/04/12 00:21:41;;;;;;;8.93;7.85;;;;;;;8.53;92.09;62872.56;4915884;29;20222;-81
2023/04/12 00:24:08;;;;;;;8.55;7.20;;;;;;;8.52;91.71;62877.13;4912444;29;20202;-80
2023/04/12 00:26:35;;;;;;;13.15;8.23;;;;;;;8.50;91.18;62875.06;4932545;29;20273;-80
2023/04/12 00:29:02;;;;;;;10.32;8.45;;;;;;;8.57;91.19;62882.28;4932896;29;20222;-80
2023/04/12 00:31:30;;;;;;;9.48;7.78;;;;;;;8.58;91.50;62880.78;4945776;29;20206;-79
2023/04/12 00:33:57;;;;;;;12.45;9.45;;;;;;;8.57;91.84;62882.28;4929558;29;20262;-78
2023/04/12 00:36:25;;;;;;;11.25;9.13;;;;;;;8.55;91.87;62879.69;4929604;29;20445;-80
2023/04/12 00:38:54;;;;;;;10.45;8.85;;;;;;;8.55;92.50;62872.09;4931787;29;20409;-80
2023/04/12 00:41:23;;;;;;;9.35;8.40;;;;;;;8.50;93.15;62872.00;4919094;29;20225;-80
2023/04/12 00:43:50;;;;;;;13.25;8.65;;;;;;;8.47;93.46;62869.44;4925281;29;20515;-79
2023/04/12 00:46:18;;;;;;;9.82;8.45;;;;;;;8.53;93.32;62875.63;4933444;29;20210;-80
2023/04/12 00:48:47;;;;;;;8.93;8.00;;;;;;;8.40;93.05;62864.72;4930307;29;20307;-81
2023/04/12 00:51:16;;;;;;;10.07;8.30;;;;;;;8.51;93.24;62870.50;4931495;29;20206;-81
2023/04/12 00:53:45;;;;;;;11.77;8.52;;;;;;;8.43;93.33;62865.28;4931719;29;20210;-81
2023/04/12 00:56:13;;;;;;;10.00;8.15;;;;;;;8.47;94.00;62874.50;4918864;29;20261;-78
2023/04/12 00:58:40;;;;;;;12.93;9.07;;;;;;;8.46;93.91;62875.47;4912774;29;20594;-79
2023/04/12 01:01:09;;;;;;;11.15;8.95;;;;;;;8.43;94.16;62865.28;4920371;29;20222;-79
2023/04/12 01:03:41;;;;;;;12.13;8.65;;;;;;;8.47;93.38;62871.97;4930168;29;20238;-79
2023/04/12 01:06:14;;;;;;;9.20;8.23;;;;;;;8.45;93.57;62869.91;4930080;29;20216;-81
2023/04/12 01:08:54;;;;;;;16.25;10.05;;;;;;;8.45;94.12;62867.34;4928597;29;20232;-79
2023/04/12 01:11:29;;;;;;;12.48;8.80;;;;;;;8.44;94.21;62868.34;4930377;29;20627;-79
2023/04/12 01:14:03;;;;;;;10.15;8.00;;;;;;;8.36;94.39;62855.53;4929377;29;20209;-78
2023/04/12 01:16:39;;;;;;;12.20;9.10;;;;;;;8.41;94.29;62863.22;4926491;29;20238;-77
2023/04/12 01:19:28;;;;;;;9.75;8.18;;;;;;;8.39;94.06;62863.69;4918302;29;20198;-76
2023/04/12 01:22:12;;;;;;;10.88;8.70;;;;;;;8.41;93.35;62862.69;4938768;29;20241;-81
2023/04/12 01:24:47;;;;;;;9.95;8.40;;;;;;;8.42;92.74;62864.25;4936167;29;20245;-79
2023/04/12 01:27:37;;;;;;;10.68;8.45;;;;;;;8.40;92.89;62864.22;4933399;29;20221;-78
2023/04/12 01:30:08;;;;;;;10.60;9.15;;;;;;;8.36;93.13;62860.06;4945481;29;20268;-80
2023/04/12 01:32:37;;;;;;;10.82;8.88;;;;;;;8.31;93.44;62852.38;4954678;29;20224;-80
2023/04/12 01:35:07;;;;;;;11.20;8.63;;;;;;;8.40;93.28;62862.19;4942816;29;20277;-80
2023/04/12 01:37:36;;;;;;;10.48;8.52;;;;;;;8.46;93.11;62865.31;4932555;29;20232;-82
2023/04/12 01:40:06;;;;;;;14.35;9.32;;;;;;;8.41;93.37;62863.22;4933561;29;20198;-80
2023/04/12 01:42:35;;;;;;;12.18;9.07;;;;;;;8.40;93.30;62864.72;4936005;29;20218;-80
2023/04/12 01:45:03;;;;;;;10.30;8.75;;;;;;;8.42;93.14;62864.25;4929738;29;20202;-80
2023/04/12 01:47:30;;;;;;;13.23;8.85;;;;;;;8.44;92.97;62866.31;4934943;29;20297;-81
2023/04/12 01:50:04;;;;;;;11.57;8.75;;;;;;;8.42;93.34;62864.25;4933456;29;20262;-79
2023/04/12 01:52:35;;;;;;;10.77;9.00;;;;;;;8.43;93.50;62867.31;4930771;29;20452;-80
2023/04/12 01:55:06;;;;;;;11.73;9.65;;;;;;;8.45;93.88;62866.84;4935716;29;20233;-80
2023/04/12 01:57:37;;;;;;;15.35;9.38;;;;;;;8.40;94.05;62864.22;4933692;29;20233;-80
2023/04/12 02:00:07;;;;;;;12.65;9.07;;;;;;;8.44;94.05;62866.31;4936084;29;20202;-82
2023/04/12 02:02:36;;;;;;;12.93;8.73;;;;;;;8.40;93.81;62859.66;4923891;29;20246;-79
2023/04/12 02:05:06;;;;;;;13.40;10.27;;;;;;;8.39;93.48;62863.69;4928518;29;20213;-77
2023/04/12 02:07:34;;;;;;;11.85;8.48;;;;;;;8.34;93.71;62856.00;4931950;29;20405;-79
2023/04/12 02:10:01;;;;;;;15.38;10.43;;;;;;;8.32;93.76;62853.41;4933205;29;20487;-80
2023/04/12 02:12:29;;;;;;;11.82;9.07;;;;;;;8.34;93.63;62853.44;4932122;29;20233;-77
2023/04/12 02:14:59;;;;;;;15.57;9.77;;;;;;;8.30;93.62;62858.97;4934704;29;20246;-78
2023/04/12 02:17:26;;;;;;;11.73;9.50;;;;;;;8.27;93.11;62848.75;4931945;29;20234;-78
2023/04/12 02:19:53;;;;;;;14.35;10.30;;;;;;;8.30;93.36;62851.34;4925574;29;20201;-79
2023/04/12 02:22:20;;;;;;;13.38;9.20;;;;;;;8.29;93.89;62847.78;4934411;29;20222;-80
2023/04/12 02:24:47;;;;;;;15.18;9.68;;;;;;;8.31;94.10;62850.34;4932733;29;20257;-80
2023/04/12 02:27:17;;;;;;;14.93;10.60;;;;;;;8.23;94.60;62849.16;4933140;29;20262;-78
2023/04/12 02:29:44;;;;;;;14.73;10.38;;;;;;;8.23;94.95;62842.09;4928333;29;20205;-80
2023/04/12 02:32:13;;;;;;;16.15;10.18;;;;;;;8.34;95.00;62858.00;4933643;29;20233;-80
2023/04/12 02:34:40;;;;;;;11.27;8.27;;;;;;;8.32;95.29;62853.91;4934303;29;20237;-79
2023/04/12 02:37:08;;;;;;;16.27;10.65;;;;;;;8.41;95.49;62862.69;4934598;29;20226;-79
2023/04/12 02:39:35;;;;;;;11.75;9.07;;;;;;;8.33;96.30;62860.03;4927685;29;20206;-79
2023/04/12 02:42:02;;;;;;;12.75;10.05;;;;;;;8.33;96.34;62857.50;4932060;29;20222;-80
2023/04/12 02:44:29;;;;;;;13.60;10.25;;;;;;;8.37;96.13;62861.13;4932412;29;20198;-79
2023/04/12 02:46:58;;;;;;;15.75;11.70;;;;;;;8.34;95.96;62855.47;4933034;29;20594;-80
2023/04/12 02:49:26;;;;;;;13.70;9.95;;;;;;;8.30;95.87;62856.41;4931818;29;20202;-80
2023/04/12 02:51:53;;;;;;;12.52;9.48;;;;;;;8.25;94.02;62846.69;4932005;29;20230;-80
2023/04/12 02:54:21;;;;;;;8.65;6.63;;;;;;;8.19;92.45;62841.00;4933695;29;20225;-81
2023/04/12 02:56:48;;;;;;;11.18;8.85;;;;;;;8.31;92.56;62855.44;4932340;29;20242;-77
2023/04/12 02:59:15;;;;;;;13.07;9.02;;;;;;;8.27;91.62;62848.25;4932638;29;20238;-82
2023/04/12 03:01:45;;;;;;;15.32;9.00;;;;;;;8.30;92.24;62851.84;4933359;29;20226;-80
2023/04/12 03:04:12;;;;;;;12.27;9.98;;;;;;;8.29;93.50;62852.84;4936251;29;20190;-80
2023/04/12 03:06:51;;;;;;;13.85;9.88;;;;;;;8.41;93.84;62860.69;4927180;29;20222;-80
2023/04/12 03:09:18;;;;;;;13.60;9.65;;;;;;;8.35;93.48;62853.97;4932749;29;20209;-81
2023/04/12 03:11:45;;;;;;;12.35;9.77;;;;;;;8.51;94.59;62873.03;4935717;29;20218;-79
2023/04/12 03:14:12;;;;;;;16.80;10.18;;;;;;;8.55;94.57;62880.22;4932060;29;20225;-82
2023/04/12 03:16:39;;;;;;;15.15;10.90;;;;;;;8.52;94.78;62876.59;4931451;29;20302;-77
2023/04/12 03:19:06;;;;;;;18.63;12.30;;;;;;;8.55;95.87;62875.16;4932123;29;20197;-80
2023/04/12 03:21:35;;;;;;;21.20;13.32;;;;;;;8.61;95.95;62883.88;4935787;29;20206;-81
2023/04/12 03:24:04;;;;;;;20.48;13.70;;;;;;;8.63;95.86;62885.44;4932822;29;20202;-80
2023/04/12 03:26:31;;;;;;;18.13;12.50;;;;;;;8.68;95.49;62890.59;4932090;29;20208;-82
2023/04/12 03:29:00;;;;;;;15.88;11.93;;;;;;;8.67;95.33;62889.56;4936242;29;20218;-81
2023/04/12 03:31:27;;;;;;;16.95;12.38;;;;;;;8.72;94.65;62897.25;4956743;29;20307;-78
2023/04/12 03:33:55;;;;;;;20.02;14.20;;;;;;;8.74;93.04;62891.72;4929598;29;20217;-80
2023/04/12 03:36:22;;;;;;;18.08;11.65;;;;;;;8.76;93.10;62904.47;4933156;29;20239;-79
2023/04/12 03:38:49;;;;;;;18.88;12.50;;;;;;;8.72;91.57;62900.31;4933142;29;20202;-80
2023/04/12 03:41:17;;;;;;;16.67;12.02;;;;;;;8.70;91.66;62895.19;4927823;29;20199;-81
2023/04/12 03:43:44;;;;;;;17.10;10.77;;;;;;;8.72;92.07;62894.72;4930057;29;20206;-76
2023/04/12 03:46:14;;;;;;;15.35;11.35;;;;;;;8.73;91.74;62898.81;4932421;29;20206;-77
2023/04/12 03:48:41;;;;;;;13.35;10.30;;;;;;;8.64;90.99;62894.09;4933961;29;20226;-78
2023/04/12 03:51:11;;;;;;;17.27;11.50;;;;;;;8.69;90.70;62894.69;4926166;29;20194;-81
2023/04/12 03:53:41;;;;;;;15.55;11.63;;;;;;;8.70;91.30;62890.13;4932211;29;20210;-78
2023/04/12 03:56:09;;;;;;;18.80;12.88;;;;;;;8.70;90.75;62890.63;4915115;29;20602;-79
2023/04/12 03:58:38;;;;;;;18.98;12.32;;;;;;;8.69;91.30;62894.16;4913179;29;20233;-80
2023/04/12 04:01:06;;;;;;;15.93;10.43;;;;;;;8.68;91.26;62883.00;4929529;29;20221;-82
2023/04/12 04:03:34;;;;;;;20.25;11.82;;;;;;;8.67;91.53;62892.09;4931898;29;20234;-78
2023/04/12 04:06:01;;;;;;;18.52;13.02;;;;;;;8.65;91.97;62882.41;4934234;29;20237;-77
2023/04/12 04:08:31;;;;;;;17.13;10.60;;;;;;;8.67;91.61;62890.09;4930253;29;20225;-81
2023/04/12 04:10:58;;;;;;;18.65;12.30;;;;;;;8.68;91.06;62893.66;4933062;29;20279;-78
2023/04/12 04:13:26;;;;;;;16.58;11.73;;;;;;;8.69;89.61;62892.16;4932209;29;20250;-78
2023/04/12 04:16:00;;;;;;;13.25;11.55;;;;;;;8.69;86.58;62892.16;4933245;29;20289;-80
2023/04/12 04:18:27;;;;;;;12.52;10.13;;;;;;;8.71;86.12;62896.25;4930091;29;20228;-80
2023/04/12 04:20:55;;;;;;;14.52;9.82;;;;;;;8.70;85.35;62895.72;4931921;29;20218;-79
2023/04/12 04:23:22;;;;;;;13.77;9.18;;;;;;;8.75;84.12;62900.38;4932987;29;20281;-80
2023/04/12 04:25:52;;;;;;;14.75;10.85;;;;;;;8.72;86.41;62894.72;4932571;29;20273;-81
2023/04/12 04:28:19;;;;;;;14.85;9.73;;;;;;;8.67;87.03;62892.09;4929762;29;20234;-79
2023/04/12 04:30:46;;;;;;;14.55;11.43;;;;;;;8.63;87.38;62885.94;4950107;29;20205;-78
2023/04/12 04:33:15;;;;;;;15.90;10.30;;;;;;;8.65;86.79;62887.50;4937026;29;20300;-80
2023/04/12 04:35:43;;;;;;;11.55;9.43;;;;;;;8.68;86.20;62893.66;4926637;29;20219;-82
2023/04/12 04:38:10;;;;;;;14.02;9.50;;;;;;;8.66;84.76;62886.50;4913622;29;20219;-79
2023/04/12 04:40:38;;;;;;;13.02;8.23;;;;;;;8.70;84.40;62892.66;4912161;29;20254;-80
2023/04/12 04:43:05;;;;;;;9.82;7.43;;;;;;;8.67;83.42;62890.09;4931438;29;20241;-80
2023/04/12 04:45:32;;;;;;;15.80;8.50;;;;;;;8.66;83.78;62888.53;4922473;29;20570;-79
2023/04/12 04:48:00;;;;;;;11.23;8.32;;;;;;;8.69;83.16;62891.63;4912170;29;20229;-82
2023/04/12 04:50:28;;;;;;;9.07;7.38;;;;;;;8.70;82.91;62892.66;4927696;29;20205;-81
2023/04/12 04:52:55;;;;;;;10.05;7.80;;;;;;;8.65;83.26;62887.50;4932093;29;20222;-79
2023/04/12 04:55:24;;;;;;;10.00;7.40;;;;;;;8.61;82.59;62883.88;4931147;29;20390;-80
2023/04/12 04:57:51;;;;;;;10.65;7.28;;;;;;;8.67;81.06;62895.16;4932953;29;20222;-81
2023/04/12 05:00:20;;;;;;;7.15;6.30;;;;;;;8.64;80.42;62884.44;4929737;29;20206;-80
2023/04/12 05:02:48;;;;;;;8.48;6.45;;;;;;;8.58;80.09;62880.78;4930465;29;20554;-80
2023/04/12 05:05:15;;;;;;;6.53;5.93;;;;;;;8.52;78.42;62877.13;4931909;29;20217;-79
2023/04/12 05:07:44;;;;;;;7.63;6.25;;;;;;;8.59;77.74;62878.75;4931453;29;20221;-79
2023/04/12 05:10:12;;;;;;;8.27;6.38;;;;;;;8.66;77.25;62891.06;4930772;29;20226;-79
2023/04/12 05:12:38;;;;;;;5.53;5.03;;;;;;;8.64;76.41;62883.94;4929569;29;20245;-79
2023/04/12 05:15:07;;;;;;;7.82;6.28;;;;;;;8.67;74.79;62892.09;4931213;29;20206;-78
2023/04/12 05:17:35;;;;;;;8.43;5.57;;;;;;;8.66;74.06;62889.03;4929649;29;20281;-79
2023/04/12 05:20:04;;;;;;;6.50;5.60;;;;;;;8.70;73.99;62893.19;4929411;29;20229;-82
2023/04/12 05:22:31;;;;;;;6.22;5.28;;;;;;;8.76;73.94;62893.78;4912540;29;20276;-80
2023/04/12 05:25:02;;;;;;;5.07;4.32;;;;;;;8.76;73.09;62901.94;4910786;29;20199;-80
2023/04/12 05:27:30;;;;;;;5.63;5.10;;;;;;;8.77;71.71;62897.34;4925768;29;20569;-82
2023/04/12 05:29:57;;;;;;;8.38;4.55;;;;;;;8.69;71.87;62892.16;4931988;29;20198;-79
2023/04/12 05:32:24;;;;;;;4.78;4.38;;;;;;;8.69;71.45;62894.69;4932593;29;20222;-83
2023/04/12 05:34:52;;;;;;;5.35;4.88;;;;;;;8.69;71.29;62889.63;4930330;29;20232;-80
2023/04/12 05:37:19;;;;;;;4.70;4.30;;;;;;;8.73;70.08;62895.78;4931473;29;20278;-80
2023/04/12 05:39:46;;;;;;;4.88;4.45;;;;;;;8.72;69.26;62900.31;4918020;29;20223;-78
2023/04/12 05:42:14;;;;;;;4.82;4.38;;;;;;;8.74;69.18;62892.25;4912960;29;20443;-81
2023/04/12 05:44:43;;;;;;;5.15;4.65;;;;;;;8.74;70.02;62894.25;4918255;29;20230;-80
2023/04/12 05:47:10;;;;;;;4.43;3.92;;;;;;;8.70;68.48;62895.19;4930583;29;20222;-80
2023/04/12 05:49:37;;;;;;;4.70;3.85;;;;;;;8.73;69.24;62895.78;4930858;29;20526;-77
2023/04/12 05:52:06;;;;;;;5.40;4.88;;;;;;;8.80;68.48;62905.53;4930618;29;20222;-78
2023/04/12 05:54:32;;;;;;;4.80;4.22;;;;;;;8.88;68.31;62914.31;4932286;29;20210;-77
2023/04/12 05:57:00;;;;;;;3.90;3.60;;;;;;;8.89;67.33;62915.34;4927422;29;20593;-77
2023/04/12 05:59:29;;;;;;;3.83;3.42;;;;;;;8.94;66.23;62917.47;4930645;29;20198;-79
2023/04/12 06:01:56;;;;;;;2.72;2.63;;;;;;;8.83;64.98;62906.63;4929126;29;20551;-80
2023/04/12 06:04:23;;;;;;;3.30;2.88;;;;;;;8.87;65.45;62917.84;4929879;29;20209;-77
2023/04/12 06:06:50;;;;;;;2.63;2.42;;;;;;;8.93;65.51;62916.94;4930214;29;20230;-78
2023/04/12 06:09:17;;;;;;;3.08;2.55;;;;;;;8.90;66.00;62915.88;4935274;29;20202;-79
2023/04/12 06:11:44;;;;;;;2.67;2.53;;;;;;;8.76;67.22;62898.88;4933275;29;20273;-80
2023/04/12 06:14:11;;;;;;;4.05;3.05;;;;;;;8.62;68.06;62884.91;4933827;29;20209;-80
2023/04/12 06:16:40;;;;;;;3.50;3.20;;;;;;;8.41;69.34;62867.78;4914539;29;20249;-79
2023/04/12 06:19:07;;;;;;;3.67;3.20;;;;;;;8.47;69.84;62871.44;4924266;29;20204;-78
2023/04/12 06:21:34;;;;;;;5.80;3.63;;;;;;;8.31;70.71;62849.84;4933353;29;20218;-81
2023/04/12 06:24:00;;;;;;;4.65;3.25;;;;;;;8.27;72.41;62848.75;4927692;29;20227;-79
2023/04/12 06:26:28;;;;;;;4.00;3.65;;;;;;;8.31;73.59;62855.44;4915240;29;20426;-80
2023/04/12 06:28:55;;;;;;;4.80;3.63;;;;;;;8.37;75.30;62856.03;4932685;29;20209;-81
2023/04/12 06:31:22;;;;;;;5.18;3.58;;;;;;;8.23;80.18;62844.09;4934752;29;20218;-80
2023/04/12 06:33:51;;;;;;;4.45;3.95;;;;;;;8.10;85.73;62829.16;4932488;29;20537;-78
2023/04/12 06:36:18;;;;;;;5.07;4.55;;;;;;;7.98;87.97;62816.25;4936774;29;20244;-80
2023/04/12 06:38:45;;;;;;;4.93;3.92;;;;;;;7.66;87.39;62786.25;4933892;29;20206;-79
2023/04/12 06:41:12;;;;;;;3.78;3.47;;;;;;;7.85;86.38;62805.38;4933301;29;20229;-81
2023/04/12 06:43:40;;;;;;;4.55;4.18;;;;;;;7.89;85.00;62810.00;4933589;29;20266;-81
2023/04/12 06:46:07;;;;;;;3.58;3.28;;;;;;;8.02;82.75;62820.91;4934428;29;20269;-77
2023/04/12 06:48:35;;;;;;;5.18;3.38;;;;;;;8.23;81.39;62842.09;4927422;29;20563;-79
2023/04/12 06:51:03;;;;;;;4.35;3.78;;;;;;;8.48;78.74;62875.00;4917003;29;20211;-79
2023/04/12 06:53:30;;;;;;;4.53;3.88;;;;;;;8.55;77.31;62877.16;4914877;29;20230;-82
2023/04/12 06:55:58;;;;;;;2.58;2.45;;;;;;;8.51;76.33;62878.63;4913924;29;20218;-79
2023/04/12 06:58:25;;;;;;;5.47;3.80;;;;;;;8.41;77.69;62865.25;4931771;29;20534;-80
2023/04/12 07:00:52;;;;;;;4.50;3.85;;;;;;;8.50;75.17;62874.53;4929531;29;20210;-79
2023/04/12 07:03:19;;;;;;;3.78;3.47;;;;;;;8.54;75.84;62881.72;4927022;29;20249;-80
2023/04/12 07:05:46;;;;;;;3.88;3.42;;;;;;;8.64;74.27;62881.91;4933483;29;20209;-80
2023/04/12 07:08:14;;;;;;;3.90;3.60;;;;;;;8.89;73.28;62912.28;4930889;29;20241;-78
2023/04/12 07:10:41;;;;;;;6.65;3.53;;;;;;;8.90;72.65;62916.41;4928707;29;20297;-80
2023/04/12 07:13:08;;;;;;;3.45;3.25;;;;;;;8.92;71.27;62915.41;4934205;29;20428;-80
2023/04/12 07:15:35;;;;;;;3.30;3.00;;;;;;;8.97;70.72;62923.09;4932297;29;20487;-78
2023/04/12 07:18:02;;;;;;;3.88;3.58;;;;;;;9.22;70.06;62941.84;4915851;29;20246;-79
2023/04/12 07:20:29;;;;;;;4.78;3.78;;;;;;;9.35;69.00;62960.34;4933621;29;20250;-82
2023/04/12 07:22:56;;;;;;;3.75;3.55;;;;;;;9.68;68.02;62998.53;4934251;29;20222;-80
2023/04/12 07:25:24;;;;;;;3.50;3.22;;;;;;;9.69;67.69;62997.03;4930309;29;20217;-76
2023/04/12 07:27:52;;;;;;;5.97;4.05;;;;;;;9.84;66.83;63010.50;4913608;29;20230;-78
2023/04/12 07:30:19;;;;;;;4.68;4.25;;;;;;;10.01;65.26;63027.59;4935914;29;20208;-78
2023/04/12 07:32:46;;;;;;;3.55;3.42;;;;;;;9.85;64.74;63011.56;4930019;29;20225;-75
2023/04/12 07:35:13;;;;;;;4.40;4.10;;;;;;;10.00;65.43;63024.53;4931158;29;20218;-76
2023/04/12 07:37:40;;;;;;;3.88;3.63;;;;;;;10.06;63.24;63030.72;4933106;29;20234;-77
2023/04/12 07:40:08;;;;;;;4.10;3.90;;;;;;;10.00;63.56;63029.09;4930846;29;20209;-77
2023/04/12 07:42:37;;;;;;;3.60;3.40;;;;;;;10.22;62.42;63051.88;4931119;29;20538;-76
2023/04/12 07:45:05;;;;;;;3.50;3.20;;;;;;;10.08;61.90;63032.28;4929116;29;20517;-76
2023/04/12 07:47:32;;;;;;;3.83;3.45;;;;;;;10.04;61.71;63036.28;4926648;29;20406;-76
2023/04/12 07:50:00;;;;;;;3.80;3.60;;;;;;;10.16;60.77;63043.13;4911288;29;20551;-79
2023/04/12 07:52:27;;;;;;;3.10;2.78;;;;;;;10.00;60.76;63031.63;4923909;29;20547;-77
2023/04/12 07:54:54;;;;;;;3.92;3.63;;;;;;;10.07;60.69;63036.84;4911615;29;20207;-78
2023/04/12 07:57:22;;;;;;;4.57;4.28;;;;;;;10.11;60.83;63040.50;4923764;29;20242;-79
2023/04/12 07:59:50;;;;;;;3.05;2.75;;;;;;;10.19;59.51;63046.75;4929903;29;20224;-78
2023/04/12 08:02:23;;;;;;;6.07;3.38;;;;;;;10.39;58.92;63066.91;4929272;29;20233;-77
2023/04/12 08:04:50;;;;;;;5.47;3.55;;;;;;;10.65;59.21;63090.78;4919871;29;20492;-77
2023/04/12 08:07:17;;;;;;;2.70;2.60;;;;;;;10.74;58.26;63102.63;4918654;29;20522;-78
2023/04/12 08:09:44;;;;;;;2.85;2.65;;;;;;;10.48;59.05;63078.78;4919763;29;20207;-75
2023/04/12 08:12:12;;;;;;;3.00;2.88;;;;;;;10.35;58.81;63065.31;4922005;29;20214;-76
2023/04/12 08:14:39;;;;;;;2.70;2.60;;;;;;;10.08;59.97;63032.81;4920572;29;20250;-76
2023/04/12 08:17:07;;;;;;;2.78;2.30;;;;;;;9.99;60.21;63026.03;4921222;29;20245;-74
2023/04/12 08:19:35;;;;;;;2.47;2.38;;;;;;;9.90;56.67;63018.75;4918413;29;20382;-77
2023/04/12 08:22:01;;;;;;;2.08;1.98;;;;;;;10.00;53.19;63026.53;4917955;29;20247;-77
2023/04/12 08:24:29;;;;;;;1.65;1.65;;;;;;;9.87;52.06;63015.66;4920678;29;20379;-78
2023/04/12 08:26:56;;;;;;;2.03;1.92;;;;;;;9.67;53.06;62992.41;4916200;29;20311;-78
2023/04/12 08:29:23;;;;;;;2.00;1.88;;;;;;;9.56;53.92;62983.59;4921675;29;20233;-78
2023/04/12 08:31:51;;;;;;;2.00;1.90;;;;;;;9.59;54.04;62986.69;4915815;29;20221;-79
2023/04/12 08:34:21;;;;;;;2.10;2.00;;;;;;;9.73;54.64;62998.63;4917082;29;20559;-79
2023/04/12 08:36:48;;;;;;;6.18;1.83;;;;;;;9.84;54.40;63010.00;4921757;29;20231;-76
2023/04/12 08:39:15;;;;;;;2.30;2.20;;;;;;;10.18;53.91;63048.25;4919762;29;20210;-76
2023/04/12 08:41:43;;;;;;;1.80;1.70;;;;;;;10.44;52.54;63072.59;4928651;29;20222;-77
2023/04/12 08:44:11;;;;;;;1.88;1.73;;;;;;;10.66;51.25;63094.34;4920219;29;20191;-78
2023/04/12 08:46:38;;;;;;;1.73;1.70;;;;;;;10.77;51.77;63103.19;4921989;29;20245;-75
2023/04/12 08:49:05;;;;;;;1.77;1.67;;;;;;;10.66;51.41;63092.31;4920174;29;20205;-74
2023/04/12 08:51:35;;;;;;;1.92;1.83;;;;;;;10.36;53.61;63061.78;4916253;29;20646;-74
2023/04/12 08:54:02;;;;;;;1.50;1.50;;;;;;;10.35;53.42;63067.88;4920161;29;20202;-78
2023/04/12 08:56:29;;;;;;;2.88;1.73;;;;;;;10.66;52.93;63096.88;4917309;29;20209;-78
2023/04/12 08:58:58;;;;;;;1.73;1.60;;;;;;;10.59;51.96;63092.19;4914819;29;20335;-76
2023/04/12 09:01:25;;;;;;;2.38;2.20;;;;;;;11.10;49.21;63137.34;4919435;29;20398;-79
2023/04/12 09:03:52;;;;;;;2.35;1.70;;;;;;;11.09;48.17;63133.75;4924115;29;20311;-78
2023/04/12 09:06:19;;;;;;;1.83;1.73;;;;;;;11.08;47.77;63140.88;4919553;29;20218;-78
2023/04/12 09:08:56;;;;;;;1.73;1.70;;;;;;;10.98;48.06;63127.47;4913257;29;20274;-75
2023/04/12 09:11:24;;;;;;;2.80;1.23;;;;;;;10.99;48.87;63133.59;4929114;29;20198;-75
2023/04/12 09:13:52;;;;;;;1.63;1.63;;;;;;;11.22;48.96;63152.31;4926930;29;20250;-75
2023/04/12 09:16:34;;;;;;;1.88;1.77;;;;;;;11.00;47.99;63132.09;4923064;29;20209;-79
2023/04/12 09:19:02;;;;;;;1.95;1.85;;;;;;;11.05;48.45;63134.72;4925927;29;20499;-78
2023/04/12 09:21:30;;;;;;;1.50;1.40;;;;;;;11.24;47.85;63160.00;4921648;29;20258;-76
2023/04/12 09:24:09;;;;;;;1.63;1.52;;;;;;;11.21;46.75;63153.84;4927831;29;20202;-77
2023/04/12 09:26:37;;;;;;;2.45;1.33;;;;;;;10.91;47.53;63120.22;4925968;29;20382;-74
2023/04/12 09:29:04;;;;;;;1.02;1.02;;;;;;;10.86;45.53;63113.00;4931893;29;20277;-73
2023/04/12 09:31:32;;;;;;;2.10;1.50;;;;;;;10.82;47.85;63113.97;4928699;29;20202;-76
2023/04/12 09:34:07;;;;;;;1.65;1.55;;;;;;;11.02;47.70;63132.13;4928209;29;20523;-74
2023/04/12 09:36:38;;;;;;;4.13;1.73;;;;;;;11.40;46.52;63173.50;4930736;29;20209;-79
2023/04/12 09:39:07;;;;;;;1.70;1.60;;;;;;;11.38;45.39;63171.97;4929755;29;20195;-77
2023/04/12 09:41:35;;;;;;;1.50;1.50;;;;;;;11.21;45.88;63154.34;4915297;29;20218;-74
2023/04/12 09:44:03;;;;;;;1.55;1.45;;;;;;;11.38;45.18;63169.41;4930166;29;20250;-78
2023/04/12 09:46:30;;;;;;;1.50;1.40;;;;;;;11.18;45.55;63145.63;4930908;29;20209;-78
2023/04/12 09:48:58;;;;;;;1.75;1.65;;;;;;;11.42;46.36;63173.03;4928773;29;20206;-77
2023/04/12 09:51:28;;;;;;;1.60;1.60;;;;;;;11.69;45.57;63206.13;4926486;29;20258;-76
2023/04/12 09:53:59;;;;;;;1.90;1.17;;;;;;;11.82;43.94;63216.53;4932454;29;20233;-74
2023/04/12 09:56:29;;;;;;;1.63;1.50;;;;;;;11.61;45.59;63192.72;4930803;29;20436;-77
2023/04/12 09:59:00;;;;;;;1.52;1.42;;;;;;;12.08;44.55;63241.44;4930926;29;20237;-76
2023/04/12 10:01:27;;;;;;;1.35;1.35;;;;;;;12.15;44.06;63248.19;4933084;29;20257;-77
2023/04/12 10:03:55;;;;;;;4.32;1.70;;;;;;;12.04;43.46;63239.31;4932813;29;20213;-78
2023/04/12 10:06:22;;;;;;;1.55;1.45;;;;;;;12.06;44.75;63241.91;4919596;29;20211;-77
2023/04/12 10:08:50;;;;;;;1.67;1.48;;;;;;;12.21;44.58;63257.47;4929923;29;20290;-77
2023/04/12 10:11:16;;;;;;;0.90;0.90;;;;;;;12.20;39.70;63258.47;4923843;29;20228;-78
2023/04/12 10:13:45;;;;;;;2.40;0.60;;;;;;;11.69;39.00;63198.47;4933197;29;20257;-76
2023/04/12 10:16:15;;;;;;;0.90;0.90;;;;;;;11.87;36.68;63221.72;4933056;29;20207;-79
2023/04/12 10:18:43;;;;;;;0.80;0.80;;;;;;;11.97;36.82;63234.63;4926926;29;20238;-75
2023/04/12 10:21:12;;;;;;;0.73;0.73;;;;;;;11.84;35.80;63216.56;4920291;29;20206;-81
2023/04/12 10:23:39;;;;;;;1.95;0.95;;;;;;;12.15;36.54;63250.72;4920147;29;20277;-81
2023/04/12 10:26:06;;;;;;;0.75;0.75;;;;;;;12.15;36.87;63245.63;4931381;29;20202;-75
2023/04/12 10:28:33;;;;;;;1.08;0.73;;;;;;;11.91;37.06;63228.91;4931379;29;20249;-80
2023/04/12 10:31:30;;;;;;;4.93;1.23;;;;;;;11.47;38.42;63181.28;4934390;29;20273;-77
2023/04/12 10:33:57;;;;;;;1.30;0.75;;;;;;;11.62;37.81;63196.81;4932879;29;20246;-78
2023/04/12 10:36:51;;;;;;;1.77;0.88;;;;;;;11.70;38.45;63204.59;4932679;29;20203;-79
2023/04/12 10:39:18;;;;;;;0.68;0.68;;;;;;;11.71;39.10;63203.09;4932825;29;20240;-75
2023/04/12 10:42:16;;;;;;;0.65;0.60;;;;;;;11.71;38.43;63205.66;4931520;29;20233;-80
2023/04/12 10:44:43;;;;;;;0.70;0.70;;;;;;;11.96;38.41;63229.00;4935456;29;20210;-78
2023/04/12 10:47:11;;;;;;;0.80;0.80;;;;;;;12.14;38.60;63250.22;4927862;29;20218;-80
2023/04/12 10:49:39;;;;;;;1.15;0.70;;;;;;;12.12;35.51;63248.13;4915045;29;20209;-81
2023/04/12 10:52:17;;;;;;;0.65;0.65;;;;;;;12.25;35.76;63261.09;4916818;29;20241;-81
2023/04/12 10:54:46;;;;;;;0.82;0.82;;;;;;;12.44;35.84;63283.84;4916377;29;20199;-80
2023/04/12 10:57:48;;;;;;;0.82;0.82;;;;;;;12.58;36.12;63295.81;4917044;29;20223;-79
2023/04/12 11:00:16;;;;;;;0.70;0.70;;;;;;;12.73;34.91;63308.81;4921307;29;20503;-79
2023/04/12 11:03:08;;;;;;;1.38;1.00;;;;;;;12.57;35.06;63292.22;4934552;29;20230;-77
2023/04/12 11:05:59;;;;;;;1.27;0.88;;;;;;;12.56;34.30;63293.22;4931927;29;20269;-81
2023/04/12 11:08:28;;;;;;;1.92;1.10;;;;;;;12.72;34.80;63312.38;4920226;29;20225;-78
2023/04/12 11:11:01;;;;;;;0.90;0.70;;;;;;;12.44;34.96;63278.75;4922095;29;20269;-76
2023/04/12 11:13:29;;;;;;;3.42;0.93;;;;;;;12.42;35.26;63281.78;4919134;29;20540;-80
2023/04/12 11:15:57;;;;;;;0.77;0.77;;;;;;;12.12;32.95;63242.50;4929953;29;20217;-81
2023/04/12 11:18:26;;;;;;;0.75;0.75;;;;;;;12.01;32.28;63241.81;4923789;29;20245;-80
2023/04/12 11:20:52;;;;;;;0.80;0.80;;;;;;;12.07;31.61;63242.44;4921006;29;20205;-78
2023/04/12 11:23:20;;;;;;;0.75;0.75;;;;;;;12.34;31.18;63265.31;4925959;29;20226;-80
2023/04/12 11:25:51;;;;;;;2.13;0.60;;;;;;;12.48;31.81;63285.44;4924248;29;20289;-80
2023/04/12 11:28:18;;;;;;;2.15;0.63;;;;;;;12.37;31.26;63273.53;4923015;29;20359;-80
2023/04/12 11:30:53;;;;;;;1.95;0.70;;;;;;;12.60;31.30;63294.81;4919908;29;20203;-80
2023/04/12 11:33:38;;;;;;;0.80;0.80;;;;;;;12.63;31.29;63303.03;4925646;29;20244;-80
2023/04/12 11:36:07;;;;;;;3.35;1.10;;;;;;;12.40;31.76;63272.06;4921975;29;20395;-78
2023/04/12 11:38:36;;;;;;;0.75;0.75;;;;;;;12.37;31.79;63270.97;4920250;29;20234;-81
2023/04/12 11:41:05;;;;;;;1.95;1.02;;;;;;;12.31;31.12;63264.75;4918103;29;20241;-79
2023/04/12 11:43:34;;;;;;;1.13;1.02;;;;;;;12.45;31.56;63284.91;4927242;29;20222;-82